Time;durP1;ratioP1;P1;durP2;ratioP2;P2;SDS_P1;SDS_P2;PMS_P1;PMS_P2;Temp;Humidity;BMP_temperature;BMP_pressure;BME280_temperature;BME280_humidity;BME280_pressure;Samples;Min_cycle;Max_cycle;Signal;HPM_P1;HPM_P2
2021/10/22 06:02:10;;;;;;;7.20;1.95;;;;;;;;;;10131777;27;15190616;-86
2021/10/22 06:07:13;;;;;;;6.82;2.22;;;;;;;;;;10523344;28;20065;-86
2021/10/22 06:13:04;;;;;;;6.25;2.13;;;;;;;;;;10516638;28;20067;-86
2021/10/22 06:18:27;;;;;;;6.82;2.70;;;;;;;;;;10531942;28;20044;-86
2021/10/22 06:46:05;;;;;;;9.38;2.35;;;;;;;;;;10668687;27;19913;-87
2021/10/22 06:51:32;;;;;;;7.18;2.15;;;;;;;;;;10613474;27;20023;-87
2021/10/22 07:03:02;;;;;;;5.72;1.83;;;;;;;;;;10492773;28;20049;-86
2021/10/22 07:08:30;;;;;;;5.80;2.03;;;;;;;;;;10607308;28;20027;-84
2021/10/22 07:13:31;;;;;;;7.25;2.65;;;;;;;;;;10601567;28;20096;-82
2021/10/22 07:19:10;;;;;;;8.77;2.45;;;;;;;;;;10587082;28;20059;-82
2021/10/22 07:24:25;;;;;;;5.88;2.20;;;;;;;;;;10596314;28;20032;-81
2021/10/22 07:29:26;;;;;;;5.70;2.67;;;;;;;;;;10570091;28;20032;-82
2021/10/22 07:34:27;;;;;;;8.85;3.75;;;;;;;;;;10599970;28;20043;-81
2021/10/22 07:39:28;;;;;;;10.55;4.32;;;;;;;;;;10579602;28;20034;-82
2021/10/22 07:44:30;;;;;;;8.77;3.85;;;;;;;;;;10584266;28;20097;-82
2021/10/22 07:49:31;;;;;;;9.25;3.33;;;;;;;;;;10591685;28;20068;-82
2021/10/22 08:00:19;;;;;;;8.90;4.90;;;;;;;;;;10594561;28;20036;-81
2021/10/22 08:05:21;;;;;;;12.10;4.13;;;;;;;;;;10612367;28;20049;-81
2021/10/22 08:10:23;;;;;;;9.93;3.70;;;;;;;;;;10593938;28;20035;-81
2021/10/22 08:15:29;;;;;;;8.52;4.28;;;;;;;;;;10589134;28;20019;-85
2021/10/22 08:20:33;;;;;;;10.02;3.08;;;;;;;;;;10582608;28;20118;-85
2021/10/22 08:25:37;;;;;;;9.82;3.88;;;;;;;;;;10603317;28;20019;-85
2021/10/22 08:30:38;;;;;;;6.18;3.20;;;;;;;;;;10585378;28;20145;-85
2021/10/22 08:35:39;;;;;;;10.25;4.57;;;;;;;;;;10585360;28;20024;-84
2021/10/22 08:40:41;;;;;;;7.07;3.38;;;;;;;;;;10603482;28;20500;-85
2021/10/22 08:46:08;;;;;;;7.88;2.75;;;;;;;;;;10582889;28;20076;-86
2021/10/22 08:51:26;;;;;;;;;;;;;;;;;;10599655;28;20479;-87
2021/10/22 09:13:27;;;;;;;8.32;3.20;;;;;;;;;;10573774;28;20455;-86
2021/10/22 09:18:31;;;;;;;8.93;3.17;;;;;;;;;;10560276;28;20090;-87
2021/10/22 09:23:42;;;;;;;7.47;3.40;;;;;;;;;;10572781;28;20046;-86
2021/10/22 09:29:14;;;;;;;7.15;2.60;;;;;;;;;;10572283;28;20065;-87
2021/10/22 09:40:14;;;;;;;11.25;3.90;;;;;;;;;;10590327;28;20028;-87
2021/10/22 09:45:36;;;;;;;8.23;3.40;;;;;;;;;;10568921;28;20114;-88
2021/10/22 09:50:50;;;;;;;8.57;2.90;;;;;;;;;;10570387;28;20035;-87
2021/10/22 09:56:08;;;;;;;8.65;3.00;;;;;;;;;;10570951;28;20127;-87
2021/10/22 10:01:43;;;;;;;6.78;2.45;;;;;;;;;;10571079;28;20054;-86
2021/10/22 10:12:47;;;;;;;8.02;2.60;;;;;;;;;;10376473;28;20538;-87
2021/10/22 10:23:42;;;;;;;6.63;2.20;;;;;;;;;;10375729;28;20026;-86
2021/10/22 10:29:17;;;;;;;9.67;3.23;;;;;;;;;;10359706;28;20437;-86
2021/10/22 10:35:02;;;;;;;8.07;2.88;;;;;;;;;;10338943;28;20083;-89
2021/10/22 10:40:12;;;;;;;10.73;2.50;;;;;;;;;;10506686;23;20082;-88
2021/10/22 10:51:03;;;;;;;12.90;4.05;;;;;;;;;;10556348;28;20552;-87
2021/10/22 10:56:07;;;;;;;8.27;2.65;;;;;;;;;;10554998;28;20119;-87
2021/10/22 11:01:30;;;;;;;8.07;2.58;;;;;;;;;;10553070;28;20063;-87
2021/10/22 11:06:36;;;;;;;6.10;2.10;;;;;;;;;;10541059;28;20036;-86
2021/10/22 11:12:01;;;;;;;6.93;2.00;;;;;;;;;;10550565;28;20032;-88
2021/10/22 11:18:06;;;;;;;5.82;1.98;;;;;;;;;;10382662;28;20038;-87
2021/10/22 11:23:28;;;;;;;6.45;1.90;;;;;;;;;;10555937;28;20113;-85
2021/10/22 11:28:30;;;;;;;6.20;1.80;;;;;;;;;;10566442;28;20051;-86
2021/10/22 11:39:23;;;;;;;9.18;3.72;;;;;;;;;;10433437;28;20029;-85
2021/10/22 11:44:24;;;;;;;5.15;1.63;;;;;;;;;;10546868;28;20059;-86
2021/10/22 11:49:36;;;;;;;5.97;2.20;;;;;;;;;;10543747;28;20039;-85
2021/10/22 11:54:41;;;;;;;6.55;2.33;;;;;;;;;;10541063;28;20035;-86
2021/10/22 11:59:45;;;;;;;6.47;2.70;;;;;;;;;;10549959;28;20044;-86
2021/10/22 12:05:15;;;;;;;7.47;2.05;;;;;;;;;;10539230;28;20032;-86
2021/10/22 12:10:17;;;;;;;4.83;2.10;;;;;;;;;;10510743;28;20036;-87
2021/10/22 12:15:39;;;;;;;5.03;2.20;;;;;;;;;;10515036;28;20102;-87
2021/10/22 12:20:40;;;;;;;7.85;2.72;;;;;;;;;;10535055;28;20131;-82
2021/10/22 12:25:44;;;;;;;7.57;3.00;;;;;;;;;;10533335;28;20062;-83
2021/10/22 12:30:46;;;;;;;7.20;2.15;;;;;;;;;;10536959;28;20040;-84
2021/10/22 12:36:32;;;;;;;8.63;3.13;;;;;;;;;;10536785;28;20036;-86
2021/10/22 12:59:04;;;;;;;7.53;2.15;;;;;;;;;;10217090;29;20043;-87
2021/10/22 13:39:03;;;;;;;6.57;2.50;;;;;;;;;;10545909;28;20451;-88
2021/10/22 13:56:13;;;;;;;3.83;2.20;;;;;;;;;;10298341;28;20031;-89
2021/10/22 14:01:44;;;;;;;6.55;2.10;;;;;;;;;;10301950;28;20046;-87
2021/10/22 14:06:46;;;;;;;8.63;3.63;;;;;;;;;;10348157;28;20385;-87
2021/10/22 14:11:52;;;;;;;8.00;2.08;;;;;;;;;;10549728;28;20036;-87
2021/10/22 14:33:03;;;;;;;5.35;2.25;;;;;;;;;;10575551;28;20057;-85
2021/10/22 14:38:04;;;;;;;;;;;;;;;;;;10567305;28;20044;-83
2021/10/22 14:43:09;;;;;;;5.32;1.88;;;;;;;;;;10546677;28;19912;-86
2021/10/22 14:48:14;;;;;;;4.75;1.88;;;;;;;;;;10542785;28;20036;-85
2021/10/22 14:53:33;;;;;;;4.47;1.75;;;;;;;;;;10543017;28;20189;-85
2021/10/22 14:58:34;;;;;;;4.72;1.77;;;;;;;;;;10546003;28;20104;-84
2021/10/22 15:03:35;;;;;;;;;;;;;;;;;;10591627;22;20052;-82
2021/10/22 15:08:36;;;;;;;5.43;1.80;;;;;;;;;;10554308;28;19904;-82
2021/10/22 15:13:37;;;;;;;;;;;;;;;;;;10529029;28;20044;-83
2021/10/22 15:18:38;;;;;;;3.85;1.50;;;;;;;;;;10503365;28;20351;-83
2021/10/22 15:23:40;;;;;;;5.22;1.90;;;;;;;;;;10502520;28;20033;-85
2021/10/22 15:28:41;;;;;;;4.78;1.80;;;;;;;;;;10502166;28;20033;-83
2021/10/22 15:33:42;;;;;;;5.53;2.17;;;;;;;;;;10503845;28;20037;-84
2021/10/22 15:38:43;;;;;;;7.28;2.33;;;;;;;;;;10522143;28;20107;-85
2021/10/22 15:43:44;;;;;;;4.80;1.92;;;;;;;;;;10510823;28;20033;-83
2021/10/22 15:48:51;;;;;;;4.60;1.85;;;;;;;;;;10520231;28;20399;-86
2021/10/22 15:53:53;;;;;;;4.97;1.85;;;;;;;;;;10517893;28;20036;-84
2021/10/22 16:05:06;;;;;;;5.25;2.28;;;;;;;;;;10427084;28;20041;-86
2021/10/22 16:15:39;;;;;;;2.60;1.35;;;;;;;;;;10537100;28;20148;-87
